Time,TemperatureF,DewpointF,PressureIn,WindDirection,WindDirectionDegrees,WindSpeedMPH,WindSpeedGustMPH,Humidity,HourlyPrecipIn,Conditions,Clouds,dailyrainin,SolarRadiationWatts/m^2,SoftwareType,DateUTC
2013-06-27 00:06:00,55.2,50.0,30.18,SW,216,1.0,6.0,81,0.00,,,0.00,0,weatherlink.com 1.10,2013-06-26 22:06:00,
2013-06-27 00:21:00,55.2,50.0,30.18,North,360,1.0,9.0,81,0.00,,,0.00,0,weatherlink.com 1.10,2013-06-26 22:21:00,
2013-06-27 00:36:00,55.1,49.0,30.18,North,360,0.0,6.0,81,0.00,,,0.00,0,weatherlink.com 1.10,2013-06-26 22:36:00,
2013-06-27 00:51:00,55.0,49.0,30.18,North,360,2.0,5.0,81,0.00,,,0.00,0,weatherlink.com 1.10,2013-06-26 22:51:00,
2013-06-27 01:06:00,54.9,49.0,30.18,NNE,30,2.0,5.0,81,0.00,,,0.00,0,weatherlink.com 1.10,2013-06-26 23:06:00,
2013-06-27 01:21:00,54.8,49.0,30.18,East,79,5.0,5.0,81,0.00,,,0.00,0,weatherlink.com 1.10,2013-06-26 23:21:00,
2013-06-27 01:36:00,54.8,49.0,30.18,SSW,192,3.0,6.0,81,0.00,,,0.00,0,weatherlink.com 1.10,2013-06-26 23:36:00,
2013-06-27 01:51:00,54.7,49.0,30.18,NNW,339,0.0,8.0,80,0.00,,,0.00,0,weatherlink.com 1.10,2013-06-26 23:51:00,
2013-06-27 02:06:00,54.8,49.0,30.18,North,11,2.0,6.0,80,0.00,,,0.00,0,weatherlink.com 1.10,2013-06-27 00:06:00,
2013-06-27 02:21:00,54.7,49.0,30.18,ESE,108,2.0,6.0,80,0.00,,,0.00,0,weatherlink.com 1.10,2013-06-27 00:21:00,
2013-06-27 02:35:00,54.5,48.0,30.18,South,186,2.0,6.0,80,0.00,,,0.00,0,weatherlink.com 1.10,2013-06-27 00:35:00,
2013-06-27 02:51:00,54.4,48.0,30.18,West,264,0.0,3.0,80,0.00,,,0.00,0,weatherlink.com 1.10,2013-06-27 00:51:00,
2013-06-27 03:06:00,54.5,48.0,30.17,SSW,205,0.0,4.0,79,0.00,,,0.00,0,weatherlink.com 1.10,2013-06-27 01:06:00,
2013-06-27 03:21:00,54.6,48.0,30.17,SW,215,1.0,5.0,79,0.00,,,0.00,0,weatherlink.com 1.10,2013-06-27 01:21:00,
2013-06-27 03:36:00,54.3,48.0,30.17,North,360,0.0,5.0,80,0.00,,,0.00,0,weatherlink.com 1.10,2013-06-27 01:36:00,
2013-06-27 03:50:00,54.1,48.0,30.17,SSW,193,3.0,4.0,80,0.00,,,0.00,0,weatherlink.com 1.10,2013-06-27 01:50:00,
2013-06-27 04:06:00,54.0,48.0,30.17,SE,130,0.0,5.0,80,0.00,,,0.00,0,weatherlink.com 1.10,2013-06-27 02:06:00,
2013-06-27 04:21:00,53.9,48.0,30.17,WNW,283,0.0,3.0,81,0.00,,,0.00,0,weatherlink.com 1.10,2013-06-27 02:21:00,
2013-06-27 04:36:00,54.2,48.0,30.17,South,178,1.0,5.0,80,0.00,,,0.00,0,weatherlink.com 1.10,2013-06-27 02:36:00,
2013-06-27 04:51:00,54.3,49.0,30.17,South,180,0.0,5.0,81,0.00,,,0.00,0,weatherlink.com 1.10,2013-06-27 02:51:00,
2013-06-27 05:06:00,54.4,49.0,30.17,NW,324,0.0,4.0,81,0.00,,,0.00,5,weatherlink.com 1.10,2013-06-27 03:06:00,
2013-06-27 05:21:00,54.4,49.0,30.17,SSE,165,2.0,6.0,81,0.00,,,0.00,12,weatherlink.com 1.10,2013-06-27 03:21:00,
2013-06-27 05:36:00,54.6,49.0,30.17,SE,129,1.0,4.0,80,0.00,,,0.00,21,weatherlink.com 1.10,2013-06-27 03:36:00,
2013-06-27 05:51:00,54.7,49.0,30.17,WNW,299,0.0,5.0,80,0.00,,,0.00,37,weatherlink.com 1.10,2013-06-27 03:51:00,
2013-06-27 06:07:00,55.1,49.0,30.17,NNW,337,5.0,6.0,79,0.00,,,0.00,84,weatherlink.com 1.10,2013-06-27 04:07:00,
2013-06-27 06:21:00,55.7,49.0,30.17,West,278,1.0,5.0,79,0.00,,,0.00,90,weatherlink.com 1.10,2013-06-27 04:21:00,
2013-06-27 06:36:00,56.0,49.0,30.17,NNW,329,1.0,5.0,78,0.00,,,0.00,83,weatherlink.com 1.10,2013-06-27 04:36:00,
2013-06-27 06:51:00,56.5,50.0,30.17,NW,316,3.0,4.0,79,0.00,,,0.00,183,weatherlink.com 1.10,2013-06-27 04:51:00,
2013-06-27 07:52:00,58.5,51.0,30.18,NE,49,2.0,3.0,75,0.00,,,0.00,167,weatherlink.com 1.10,2013-06-27 05:52:00,
2013-06-27 08:07:00,59.0,51.0,30.18,SW,220,1.0,6.0,76,0.00,,,0.00,185,weatherlink.com 1.10,2013-06-27 06:07:00,
2013-06-27 08:22:00,58.6,51.0,30.18,NNE,13,1.0,5.0,75,0.00,,,0.00,199,weatherlink.com 1.10,2013-06-27 06:22:00,
2013-06-27 08:37:00,58.0,51.0,30.18,NW,306,0.0,7.0,77,0.00,,,0.00,188,weatherlink.com 1.10,2013-06-27 06:37:00,
2013-06-27 08:52:00,58.3,52.0,30.18,WNW,294,2.0,3.0,79,0.00,,,0.00,192,weatherlink.com 1.10,2013-06-27 06:52:00,
2013-06-27 09:07:00,58.7,52.0,30.18,NNE,15,0.0,5.0,78,0.00,,,0.00,188,weatherlink.com 1.10,2013-06-27 07:07:00,
2013-06-27 09:22:00,59.2,52.0,30.18,NNW,346,1.0,5.0,78,0.00,,,0.00,197,weatherlink.com 1.10,2013-06-27 07:22:00,
2013-06-27 09:37:00,59.3,52.0,30.18,SW,223,1.0,4.0,78,0.00,,,0.00,248,weatherlink.com 1.10,2013-06-27 07:37:00,
2013-06-27 09:52:00,59.9,53.0,30.18,NNE,12,2.0,5.0,77,0.00,,,0.00,274,weatherlink.com 1.10,2013-06-27 07:52:00,
2013-06-27 10:22:00,60.8,54.0,30.18,NNW,330,0.0,5.0,77,0.00,,,0.00,283,weatherlink.com 1.10,2013-06-27 08:22:00,
2013-06-27 10:37:00,60.2,53.0,30.18,NW,304,1.0,3.0,76,0.00,,,0.00,279,weatherlink.com 1.10,2013-06-27 08:37:00,
2013-06-27 10:52:00,61.2,54.0,30.18,NNW,348,3.0,6.0,76,0.00,,,0.00,378,weatherlink.com 1.10,2013-06-27 08:52:00,
2013-06-27 11:07:00,61.5,54.0,30.18,NNW,331,2.0,8.0,76,0.00,,,0.00,279,weatherlink.com 1.10,2013-06-27 09:07:00,
2013-06-27 11:22:00,60.2,53.0,30.18,WSW,241,1.0,5.0,78,0.00,,,0.00,236,weatherlink.com 1.10,2013-06-27 09:22:00,
2013-06-27 11:37:00,61.1,54.0,30.18,West,262,1.0,5.0,77,0.00,,,0.00,265,weatherlink.com 1.10,2013-06-27 09:37:00,
2013-06-27 11:52:00,61.5,54.0,30.18,North,351,4.0,5.0,76,0.00,,,0.00,243,weatherlink.com 1.10,2013-06-27 09:52:00,
2013-06-27 12:07:00,61.5,54.0,30.18,NNW,344,1.0,5.0,75,0.00,,,0.00,223,weatherlink.com 1.10,2013-06-27 10:07:00,
2013-06-27 12:22:00,62.4,54.0,30.18,NNW,332,3.0,5.0,74,0.00,,,0.00,283,weatherlink.com 1.10,2013-06-27 10:22:00,
2013-06-27 12:37:00,63.9,55.0,30.18,North,360,4.0,7.0,72,0.00,,,0.00,564,weatherlink.com 1.10,2013-06-27 10:37:00,
2013-06-27 12:52:00,68.0,56.0,30.18,West,275,2.0,8.0,66,0.00,,,0.00,652,weatherlink.com 1.10,2013-06-27 10:52:00,
2013-06-27 13:07:00,68.9,57.0,30.17,NNW,339,3.0,7.0,65,0.00,,,0.00,928,weatherlink.com 1.10,2013-06-27 11:07:00,
2013-06-27 13:22:00,68.3,56.0,30.17,NNW,345,0.0,8.0,65,0.00,,,0.00,872,weatherlink.com 1.10,2013-06-27 11:22:00,
2013-06-27 13:37:00,68.7,55.0,30.16,WNW,289,0.0,7.0,63,0.00,,,0.00,877,weatherlink.com 1.10,2013-06-27 11:37:00,
2013-06-27 13:52:00,70.5,57.0,30.16,North,360,2.0,6.0,63,0.00,,,0.00,896,weatherlink.com 1.10,2013-06-27 11:52:00,
2013-06-27 14:07:00,71.3,56.0,30.15,North,360,2.0,5.0,59,0.00,,,0.00,988,weatherlink.com 1.10,2013-06-27 12:07:00,
2013-06-27 14:22:00,71.2,55.0,30.15,North,355,0.0,7.0,56,0.00,,,0.00,946,weatherlink.com 1.10,2013-06-27 12:22:00,
2013-06-27 14:37:00,71.4,55.0,30.14,North,5,1.0,12.0,57,0.00,,,0.00,265,weatherlink.com 1.10,2013-06-27 12:37:00,
2013-06-27 14:52:00,69.0,54.0,30.14,NNW,346,6.0,9.0,60,0.00,,,0.00,367,weatherlink.com 1.10,2013-06-27 12:52:00,
2013-06-27 15:07:00,69.0,55.0,30.14,NNW,340,0.0,5.0,61,0.00,,,0.00,281,weatherlink.com 1.10,2013-06-27 13:07:00,
2013-06-27 15:22:00,68.0,55.0,30.14,North,5,1.0,3.0,63,0.00,,,0.00,234,weatherlink.com 1.10,2013-06-27 13:22:00,
2013-06-27 15:37:00,67.8,55.0,30.13,West,271,0.0,4.0,63,0.00,,,0.00,281,weatherlink.com 1.10,2013-06-27 13:37:00,
2013-06-27 15:52:00,69.1,56.0,30.13,NNW,337,2.0,7.0,63,0.00,,,0.00,283,weatherlink.com 1.10,2013-06-27 13:52:00,
2013-06-27 16:07:00,68.2,55.0,30.12,SW,227,1.0,3.0,64,0.00,,,0.00,322,weatherlink.com 1.10,2013-06-27 14:07:00,
2013-06-27 16:23:00,68.6,55.0,30.12,SW,233,0.0,6.0,63,0.00,,,0.00,364,weatherlink.com 1.10,2013-06-27 14:23:00,
2013-06-27 16:52:00,68.2,55.0,30.12,North,360,0.0,1.0,64,0.00,,,0.00,181,weatherlink.com 1.10,2013-06-27 14:52:00,
2013-06-27 17:08:00,69.7,56.0,30.11,North,360,0.0,8.0,63,0.00,,,0.00,239,weatherlink.com 1.10,2013-06-27 15:08:00,
2013-06-27 17:23:00,69.5,56.0,30.11,NNE,15,2.0,6.0,62,0.00,,,0.00,130,weatherlink.com 1.10,2013-06-27 15:23:00,
2013-06-27 17:38:00,68.2,55.0,30.11,North,355,1.0,6.0,62,0.00,,,0.00,105,weatherlink.com 1.10,2013-06-27 15:38:00,
2013-06-27 17:53:00,67.5,55.0,30.11,WSW,249,0.0,4.0,65,0.00,,,0.00,83,weatherlink.com 1.10,2013-06-27 15:53:00,
2013-06-27 18:08:00,66.7,55.0,30.11,NW,319,0.0,4.0,66,0.00,,,0.00,76,weatherlink.com 1.10,2013-06-27 16:08:00,
2013-06-27 18:23:00,66.6,55.0,30.11,WNW,290,0.0,2.0,66,0.00,,,0.00,83,weatherlink.com 1.10,2013-06-27 16:23:00,
2013-06-27 18:38:00,66.4,54.0,30.11,North,360,0.0,3.0,65,0.00,,,0.00,77,weatherlink.com 1.10,2013-06-27 16:38:00,
2013-06-27 18:53:00,66.1,55.0,30.11,NW,312,0.0,1.0,67,0.00,,,0.00,93,weatherlink.com 1.10,2013-06-27 16:53:00,
2013-06-27 19:08:00,66.2,55.0,30.11,NW,312,0.0,2.0,67,0.00,,,0.00,76,weatherlink.com 1.10,2013-06-27 17:08:00,
2013-06-27 19:23:00,65.9,55.0,30.11,NW,315,0.0,1.0,68,0.00,,,0.00,47,weatherlink.com 1.10,2013-06-27 17:23:00,
2013-06-27 19:38:00,65.3,55.0,30.11,WSW,254,0.0,2.0,69,0.00,,,0.00,28,weatherlink.com 1.10,2013-06-27 17:38:00,
2013-06-27 19:53:00,64.5,55.0,30.11,WSW,253,0.0,1.0,70,0.00,,,0.00,23,weatherlink.com 1.10,2013-06-27 17:53:00,
2013-06-27 20:08:00,63.9,54.0,30.10,SSW,212,0.0,3.0,71,0.00,,,0.00,14,weatherlink.com 1.10,2013-06-27 18:08:00,
2013-06-27 20:23:00,63.2,54.0,30.11,WSW,240,0.0,1.0,72,0.00,,,0.00,9,weatherlink.com 1.10,2013-06-27 18:23:00,
2013-06-27 20:38:00,62.7,54.0,30.11,WSW,237,0.0,3.0,73,0.00,,,0.00,5,weatherlink.com 1.10,2013-06-27 18:38:00,
2013-06-27 20:52:00,62.2,53.0,30.11,NW,313,1.0,2.0,73,0.00,,,0.00,0,weatherlink.com 1.10,2013-06-27 18:52:00,
2013-06-27 21:07:00,61.6,54.0,30.11,WNW,291,0.0,1.0,75,0.00,,,0.00,0,weatherlink.com 1.10,2013-06-27 19:07:00,
2013-06-27 21:22:00,61.5,54.0,30.11,SSW,205,0.0,1.0,76,0.00,,,0.00,0,weatherlink.com 1.10,2013-06-27 19:22:00,
2013-06-27 21:52:00,61.3,53.0,30.11,West,276,0.0,2.0,73,0.00,,,0.00,0,weatherlink.com 1.10,2013-06-27 19:52:00,
2013-06-27 22:07:00,61.4,52.0,30.11,NNE,15,1.0,2.0,72,0.00,,,0.00,0,weatherlink.com 1.10,2013-06-27 20:07:00,
2013-06-27 22:23:00,61.5,52.0,30.11,SSW,202,0.0,2.0,70,0.00,,,0.00,0,weatherlink.com 1.10,2013-06-27 20:23:00,
2013-06-27 22:38:00,61.5,52.0,30.11,NW,324,0.0,4.0,71,0.00,,,0.00,0,weatherlink.com 1.10,2013-06-27 20:38:00,
2013-06-27 22:53:00,61.3,53.0,30.11,NW,325,0.0,2.0,73,0.00,,,0.00,0,weatherlink.com 1.10,2013-06-27 20:53:00,
2013-06-27 23:08:00,60.9,52.0,30.11,NW,326,0.0,1.0,73,0.00,,,0.00,0,weatherlink.com 1.10,2013-06-27 21:08:00,
2013-06-27 23:23:00,61.0,53.0,30.11,NW,325,0.0,0.0,74,0.00,,,0.00,0,weatherlink.com 1.10,2013-06-27 21:23:00,
2013-06-27 23:38:00,61.1,53.0,30.11,NW,323,0.0,1.0,74,0.00,,,0.00,0,weatherlink.com 1.10,2013-06-27 21:38:00,
2013-06-27 23:53:00,61.1,53.0,30.11,NNW,331,0.0,3.0,75,0.00,,,0.00,0,weatherlink.com 1.10,2013-06-27 21:53:00,